Megargel, Alabama
Current Conditions -  °F | °C
As of 5:53 AM on Saturday 27 Dec 2014 (Local Time) from KGZH Reporting Station
Broken Clouds Broken Clouds  
Wind Chill: 50°   Ceiling: 9000
Heat Index: 50°   Visibility: 10mi
Dew Point: 43°   Wind: 7mph
Humidity: 77%   Direction: 120°ESE
Pressure: 30.21"   Gusts: NA
Location:  31.38°N, 87.43°W
Report Text: KGZH 271153Z AUTO 12006KT 10SM BKN090 10/06 A3021 RMK AO2 SLP230 T01000061 10100 20056 58002
Loading
Personal Weather Stations






























Interactive Weather Map New forecast layout! Learn more

10-Day Weather Forecast

Advertisements
Track Severe Weather on mobile